createdAt,value
2018-05-12T00:01:59.550Z,74.30
2018-05-12T00:04:27.788Z,74.20
2018-05-12T00:06:56.046Z,74.40
2018-05-12T00:09:25.048Z,74.90
2018-05-12T00:11:53.289Z,74.80
2018-05-12T00:14:21.544Z,74.70
2018-05-12T00:16:50.557Z,74.10
2018-05-12T00:19:18.841Z,74.00
2018-05-12T00:21:47.110Z,73.90
2018-05-12T00:24:15.346Z,74.10
2018-05-12T00:26:43.593Z,74.10
2018-05-12T00:29:11.821Z,73.90
2018-05-12T00:31:40.829Z,74.00
2018-05-12T00:34:09.051Z,74.00
2018-05-12T00:36:37.310Z,73.90
2018-05-12T00:39:05.566Z,73.70
2018-05-12T00:41:33.795Z,73.70
2018-05-12T00:44:02.023Z,73.70
2018-05-12T00:46:30.302Z,74.30
2018-05-12T00:48:58.525Z,73.70
2018-05-12T00:51:26.780Z,74.10
2018-05-12T00:53:55.005Z,74.30
2018-05-12T00:56:23.255Z,74.30
2018-05-12T00:58:51.497Z,74.40
2018-05-12T01:01:19.753Z,74.40
2018-05-12T01:03:47.975Z,74.20
2018-05-12T01:06:16.206Z,74.10
2018-05-12T01:08:44.462Z,74.70
2018-05-12T01:11:12.689Z,73.90
2018-05-12T01:13:40.950Z,73.90
2018-05-12T01:16:09.176Z,74.10
2018-05-12T01:18:38.172Z,74.20
2018-05-12T01:21:06.420Z,74.20
2018-05-12T01:23:34.653Z,74.40
2018-05-12T01:26:02.906Z,74.80
2018-05-12T01:28:31.164Z,74.60
2018-05-12T01:31:00.222Z,74.40
2018-05-12T01:33:28.486Z,74.40
2018-05-12T01:35:56.732Z,74.40
2018-05-12T01:38:24.981Z,74.80
2018-05-12T01:40:53.224Z,74.80
2018-05-12T01:43:21.443Z,74.60
2018-05-12T01:45:50.472Z,74.30
2018-05-12T01:48:18.696Z,74.20
2018-05-12T01:50:46.941Z,74.90
2018-05-12T01:53:15.185Z,75.30
2018-05-12T01:55:43.408Z,75.90
2018-05-12T01:58:11.657Z,75.70
2018-05-12T02:00:39.892Z,75.40
2018-05-12T02:03:08.904Z,74.80
2018-05-12T02:05:37.127Z,74.70
2018-05-12T02:08:05.380Z,75.80
2018-05-12T02:10:33.612Z,75.40
2018-05-12T02:13:02.626Z,76.10
2018-05-12T02:15:30.858Z,76.00
2018-05-12T02:17:59.111Z,76.40
2018-05-12T02:20:27.345Z,76.50
2018-05-12T02:22:56.369Z,75.90
2018-05-12T02:25:24.603Z,75.80
2018-05-12T02:27:53.591Z,75.30
2018-05-12T02:30:22.716Z,75.40
2018-05-12T02:32:50.830Z,75.40
2018-05-12T02:35:19.105Z,76.00
2018-05-12T02:37:47.324Z,76.20
2018-05-12T02:40:16.327Z,76.10
2018-05-12T02:42:44.620Z,76.00
2018-05-12T02:45:12.860Z,75.70
2018-05-12T02:47:41.116Z,75.50
2018-05-12T02:50:09.360Z,75.70
2018-05-12T02:52:37.583Z,75.40
2018-05-12T02:55:05.854Z,75.50
2018-05-12T02:57:34.084Z,75.70
2018-05-12T03:00:02.397Z,76.10
2018-05-12T03:02:30.650Z,76.50
2018-05-12T03:04:58.884Z,76.90
2018-05-12T03:07:27.895Z,76.70
2018-05-12T03:09:56.161Z,76.70
2018-05-12T03:12:24.421Z,76.20
2018-05-12T03:14:53.455Z,75.90
2018-05-12T03:17:21.680Z,75.80
2018-05-12T03:19:49.913Z,75.70
2018-05-12T03:22:18.177Z,76.00
2018-05-12T03:24:46.431Z,76.10
2018-05-12T03:27:14.661Z,76.10
2018-05-12T03:29:42.933Z,76.20
2018-05-12T03:32:11.161Z,76.20
2018-05-12T03:34:39.398Z,76.70
2018-05-12T03:37:07.639Z,76.90
2018-05-12T03:39:35.873Z,77.40
2018-05-12T03:42:04.900Z,77.40
2018-05-12T03:44:33.141Z,77.40
2018-05-12T03:47:02.156Z,77.60
2018-05-12T03:49:30.400Z,77.60
2018-05-12T03:51:58.682Z,77.50
2018-05-12T03:54:26.888Z,77.50
2018-05-12T03:56:55.130Z,77.20
2018-05-12T03:59:23.355Z,77.20
2018-05-12T04:01:51.593Z,77.20
2018-05-12T04:04:32.559Z,77.50
2018-05-12T04:07:12.741Z,77.50
2018-05-12T04:09:52.784Z,77.70
2018-05-12T04:12:30.683Z,77.80
2018-05-12T04:14:59.671Z,78.10
2018-05-12T04:17:28.699Z,78.00
2018-05-12T04:19:56.920Z,78.00
2018-05-12T04:22:25.200Z,78.10
2018-05-12T04:24:53.436Z,78.20
2018-05-12T04:27:21.667Z,77.50
2018-05-12T04:29:50.703Z,78.20
2018-05-12T04:32:18.944Z,78.10
2018-05-12T04:34:47.967Z,78.10
2018-05-12T04:37:16.176Z,78.10
2018-05-12T04:39:44.410Z,78.20
2018-05-12T04:42:12.644Z,78.20
2018-05-12T04:44:40.894Z,78.10
2018-05-12T04:47:09.123Z,78.20
2018-05-12T04:49:38.148Z,78.20
2018-05-12T04:52:06.385Z,78.20
2018-05-12T04:54:35.400Z,78.40
2018-05-12T04:57:03.646Z,78.30
2018-05-12T04:59:31.925Z,78.30
2018-05-12T05:02:00.139Z,78.40
2018-05-12T05:04:28.369Z,78.30
2018-05-12T05:06:56.625Z,78.60
2018-05-12T05:09:24.852Z,78.70
2018-05-12T05:11:53.144Z,78.90
2018-05-12T05:14:21.362Z,79.70
2018-05-12T05:16:49.621Z,79.20
2018-05-12T05:19:17.866Z,79.10
2018-05-12T05:21:46.088Z,79.20
2018-05-12T05:24:14.335Z,79.20
2018-05-12T05:26:42.628Z,79.20
2018-05-12T05:29:10.909Z,79.50
2018-05-12T05:31:39.147Z,79.70
2018-05-12T05:34:07.409Z,79.70
2018-05-12T05:36:36.433Z,79.70
2018-05-12T05:39:04.676Z,79.70
2018-05-12T05:41:33.723Z,80.40
2018-05-12T05:44:02.710Z,80.00
2018-05-12T05:46:30.989Z,80.00
2018-05-12T05:48:59.995Z,80.70
2018-05-12T05:51:28.221Z,80.00
2018-05-12T05:53:57.242Z,80.00
2018-05-12T05:56:25.480Z,80.00
2018-05-12T05:58:54.518Z,80.40
2018-05-12T06:01:22.760Z,80.40
2018-05-12T06:03:51.761Z,80.30
2018-05-12T06:06:20.003Z,80.30
2018-05-12T06:08:48.246Z,80.20
2018-05-12T06:11:16.497Z,80.10
2018-05-12T06:13:44.740Z,80.00
2018-05-12T06:16:12.993Z,79.90
2018-05-12T06:18:41.220Z,79.90
2018-05-12T06:21:09.487Z,79.60
2018-05-12T06:23:37.702Z,79.50
2018-05-12T06:26:05.949Z,79.70
2018-05-12T06:28:34.207Z,79.50
2018-05-12T06:31:03.204Z,79.20
2018-05-12T06:33:32.304Z,79.10
2018-05-12T06:36:00.514Z,79.00
2018-05-12T06:38:28.736Z,79.10
2018-05-12T06:40:57.765Z,79.00
2018-05-12T06:43:26.017Z,79.00
2018-05-12T06:45:55.024Z,78.40
2018-05-12T06:48:23.258Z,78.40
2018-05-12T06:50:51.516Z,78.20
2018-05-12T06:53:19.752Z,77.90
2018-05-12T06:55:48.096Z,77.50
2018-05-12T06:58:17.171Z,77.10
2018-05-12T07:00:45.408Z,77.00
2018-05-12T07:03:13.683Z,76.80
2018-05-12T07:05:41.936Z,76.50
2018-05-12T07:08:10.956Z,75.80
2018-05-12T07:10:39.216Z,75.70
2018-05-12T07:13:08.232Z,75.30
2018-05-12T07:15:36.454Z,75.30
2018-05-12T07:18:04.903Z,75.10
2018-05-12T07:20:33.140Z,75.20
2018-05-12T07:23:02.146Z,75.00
2018-05-12T07:25:30.383Z,74.90
2018-05-12T07:27:58.722Z,74.80
2018-05-12T07:30:26.971Z,74.70
2018-05-12T07:32:55.228Z,74.50
2018-05-12T07:35:23.471Z,74.00
2018-05-12T07:37:51.735Z,74.00
2018-05-12T07:40:20.011Z,74.10
2018-05-12T07:42:48.259Z,73.00
2018-05-12T07:45:16.497Z,71.90
2018-05-12T07:47:44.759Z,71.60
2018-05-12T07:50:12.997Z,70.50
2018-05-12T07:52:41.255Z,70.60
2018-05-12T07:55:09.490Z,70.50
2018-05-12T07:57:37.804Z,70.90
2018-05-12T08:00:06.787Z,69.30
2018-05-12T08:02:35.797Z,69.10
2018-05-12T08:05:04.025Z,69.10
2018-05-12T08:07:32.299Z,69.10
2018-05-12T08:10:00.546Z,68.80
2018-05-12T08:12:28.774Z,68.80
2018-05-12T08:14:57.295Z,68.10
2018-05-12T08:17:26.295Z,68.40
2018-05-12T08:19:54.525Z,68.30
2018-05-12T08:22:22.781Z,67.80
2018-05-12T08:24:51.015Z,68.30
2018-05-12T08:27:19.263Z,68.20
2018-05-12T08:29:48.263Z,67.40
2018-05-12T08:32:17.273Z,67.20
2018-05-12T08:34:45.520Z,67.10
2018-05-12T08:37:13.751Z,67.40
2018-05-12T08:39:42.010Z,67.20
2018-05-12T08:42:10.289Z,67.40
2018-05-12T08:44:39.282Z,66.60
2018-05-12T08:47:07.503Z,66.60
2018-05-12T08:49:35.756Z,66.00
2018-05-12T08:52:04.766Z,65.20
2018-05-12T08:54:33.017Z,65.00
2018-05-12T08:57:01.249Z,65.40
2018-05-12T08:59:30.279Z,65.10
2018-05-12T09:01:58.510Z,65.00
2018-05-12T09:04:26.754Z,64.90
2018-05-12T09:06:54.999Z,64.50
2018-05-12T09:09:23.219Z,63.80
2018-05-12T09:11:51.466Z,63.90
2018-05-12T09:14:20.600Z,64.20
2018-05-12T09:16:48.880Z,63.50
2018-05-12T09:19:17.143Z,64.20
2018-05-12T09:21:45.355Z,63.70
2018-05-12T09:24:14.728Z,64.00
2018-05-12T09:26:42.970Z,63.90
2018-05-12T09:29:11.204Z,63.10
2018-05-12T09:31:40.229Z,63.10
2018-05-12T09:34:08.472Z,63.00
2018-05-12T09:36:37.468Z,62.70
2018-05-12T09:39:06.499Z,62.50
2018-05-12T09:41:34.730Z,62.40
2018-05-12T09:44:02.964Z,62.40
2018-05-12T09:46:31.185Z,62.50
2018-05-12T09:49:00.201Z,63.20
2018-05-12T09:51:28.435Z,62.50
2018-05-12T09:53:56.686Z,62.80
2018-05-12T09:56:24.906Z,62.50
2018-05-12T09:58:53.936Z,62.20
2018-05-12T10:01:22.166Z,62.10
2018-05-12T10:03:50.392Z,60.70
2018-05-12T10:06:18.635Z,61.30
2018-05-12T10:08:47.726Z,61.40
2018-05-12T10:11:16.747Z,61.70
2018-05-12T10:13:44.977Z,61.60
2018-05-12T10:16:13.216Z,61.30
2018-05-12T10:18:41.447Z,61.00
2018-05-12T10:21:10.463Z,61.10
2018-05-12T10:23:38.728Z,61.00
2018-05-12T10:26:06.968Z,61.30
2018-05-12T10:28:35.205Z,60.90
2018-05-12T10:31:03.463Z,60.20
2018-05-12T10:33:32.474Z,60.40
2018-05-12T10:36:00.699Z,60.30
2018-05-12T10:38:28.963Z,60.80
2018-05-12T10:40:57.181Z,61.20
2018-05-12T10:43:26.176Z,60.20
2018-05-12T10:45:55.233Z,60.40
2018-05-12T10:48:23.495Z,60.40
2018-05-12T10:50:52.626Z,60.70
2018-05-12T10:53:20.875Z,60.60
2018-05-12T10:55:49.093Z,60.60
2018-05-12T10:58:18.116Z,59.80
2018-05-12T11:00:46.348Z,59.70
2018-05-12T11:03:14.603Z,60.00
2018-05-12T11:05:42.871Z,60.30
2018-05-12T11:08:11.098Z,59.30
2018-05-12T11:10:39.396Z,59.30
2018-05-12T11:13:08.365Z,59.50
2018-05-12T11:15:37.379Z,59.90
2018-05-12T11:18:05.612Z,59.90
2018-05-12T11:20:33.836Z,59.60
2018-05-12T11:23:02.086Z,59.80
2018-05-12T11:25:31.101Z,59.30
2018-05-12T11:28:03.084Z,59.20
2018-05-12T11:30:31.332Z,59.30
2018-05-12T11:32:59.592Z,59.50
2018-05-12T11:35:29.183Z,59.00
2018-05-12T11:37:57.398Z,59.00
2018-05-12T11:40:25.652Z,59.00
2018-05-12T11:42:54.956Z,59.00
2018-05-12T11:45:23.959Z,58.80
2018-05-12T11:47:52.208Z,58.80
2018-05-12T11:50:20.501Z,58.90
2018-05-12T11:52:49.499Z,59.30
2018-05-12T11:55:18.505Z,58.80
2018-05-12T11:57:46.772Z,58.80
2018-05-12T12:00:15.035Z,59.30
2018-05-12T12:02:44.032Z,59.20
2018-05-12T12:05:13.047Z,59.20
2018-05-12T12:07:41.288Z,59.10
2018-05-12T12:10:10.455Z,58.90
2018-05-12T12:12:38.711Z,58.70
2018-05-12T12:15:06.963Z,58.80
2018-05-12T12:17:35.224Z,58.30
2018-05-12T12:20:04.211Z,58.20
2018-05-12T12:22:32.461Z,58.10
2018-05-12T12:25:00.710Z,58.50
2018-05-12T12:27:28.955Z,58.50
2018-05-12T12:29:58.032Z,58.20
2018-05-12T12:32:26.232Z,58.10
2018-05-12T12:34:54.456Z,57.70
2018-05-12T12:37:22.757Z,57.40
2018-05-12T12:39:50.984Z,57.70
2018-05-12T12:42:19.253Z,57.60
2018-05-12T12:44:47.505Z,57.30
2018-05-12T12:47:16.495Z,57.20
2018-05-12T12:49:45.516Z,57.30
2018-05-12T12:52:13.740Z,57.20
2018-05-12T12:54:42.038Z,58.00
2018-05-12T12:57:10.259Z,57.00
2018-05-12T12:59:38.556Z,57.40
2018-05-12T13:02:06.797Z,57.00
2018-05-12T13:04:35.036Z,57.20
2018-05-12T13:07:03.288Z,56.80
2018-05-12T13:09:31.549Z,56.70
2018-05-12T13:11:59.793Z,57.00
2018-05-12T13:14:28.033Z,57.10
2018-05-12T13:16:56.279Z,57.60
2018-05-12T13:19:24.912Z,57.80
2018-05-12T13:21:53.919Z,57.50
2018-05-12T13:24:22.959Z,57.50
2018-05-12T13:26:51.214Z,57.40
2018-05-12T13:29:19.444Z,56.70
2018-05-12T13:31:48.594Z,57.50
2018-05-12T13:34:17.628Z,57.00
2018-05-12T13:36:45.844Z,56.90
2018-05-12T13:39:14.067Z,57.20
2018-05-12T13:41:42.359Z,57.70
2018-05-12T13:44:10.572Z,57.00
2018-05-12T13:46:38.830Z,57.60
2018-05-12T13:49:07.877Z,56.90
2018-05-12T13:51:36.136Z,56.90
2018-05-12T13:54:04.370Z,57.30
2018-05-12T13:56:33.382Z,57.20
2018-05-12T13:59:02.469Z,57.10
2018-05-12T14:01:31.485Z,57.00
2018-05-12T14:04:00.507Z,57.00
2018-05-12T14:06:28.739Z,57.10
2018-05-12T14:08:57.578Z,57.20
2018-05-12T14:11:25.799Z,57.00
2018-05-12T14:13:54.800Z,57.10
2018-05-12T14:16:23.060Z,57.00
2018-05-12T14:18:52.065Z,57.60
2018-05-12T14:21:21.080Z,57.40
2018-05-12T14:23:49.317Z,57.40
2018-05-12T14:26:17.646Z,57.00
2018-05-12T14:28:45.784Z,56.20
2018-05-12T14:31:14.839Z,56.70
2018-05-12T14:33:43.854Z,56.70
2018-05-12T14:36:12.087Z,56.80
2018-05-12T14:38:40.334Z,56.90
2018-05-12T14:41:08.575Z,55.80
2018-05-12T14:43:36.800Z,56.20
2018-05-12T14:46:05.044Z,56.00
2018-05-12T14:48:33.323Z,56.20
2018-05-12T14:51:02.342Z,56.00
2018-05-12T14:53:30.567Z,55.90
2018-05-12T14:55:58.798Z,56.10
2018-05-12T14:58:27.044Z,55.70
2018-05-12T15:00:56.042Z,56.00
2018-05-12T15:03:25.060Z,56.20
2018-05-12T15:05:53.368Z,56.20
2018-05-12T15:08:22.367Z,56.20
2018-05-12T15:10:51.291Z,56.10
2018-05-12T15:13:20.295Z,56.30
2018-05-12T15:15:49.304Z,55.20
2018-05-12T15:18:17.535Z,55.20
2018-05-12T15:20:45.797Z,56.00
2018-05-12T15:23:14.083Z,55.70
2018-05-12T15:25:42.313Z,55.40
2018-05-12T15:28:11.163Z,55.60
2018-05-12T15:30:39.420Z,55.70
2018-05-12T15:33:07.635Z,55.80
2018-05-12T15:35:37.249Z,55.20
2018-05-12T15:38:05.562Z,55.10
2018-05-12T15:40:33.784Z,55.80
2018-05-12T15:43:02.030Z,55.40
2018-05-12T15:45:30.273Z,56.20
2018-05-12T15:47:58.528Z,55.10
2018-05-12T15:50:27.519Z,54.90
2018-05-12T15:52:55.752Z,54.90
2018-05-12T15:55:23.975Z,55.10
2018-05-12T15:57:52.212Z,55.40
2018-05-12T16:00:20.450Z,55.00
2018-05-12T16:02:48.669Z,55.10
2018-05-12T16:05:16.920Z,55.10
2018-05-12T16:07:45.232Z,55.20
2018-05-12T16:10:13.471Z,54.80
2018-05-12T16:12:41.711Z,54.60
2018-05-12T16:15:09.954Z,54.50
2018-05-12T16:17:38.281Z,54.80
2018-05-12T16:20:06.513Z,54.30
2018-05-12T16:22:34.732Z,54.90
2018-05-12T16:25:02.979Z,54.90
2018-05-12T16:27:31.971Z,54.90
2018-05-12T16:30:00.975Z,54.70
2018-05-12T16:32:29.976Z,54.70
2018-05-12T16:34:58.223Z,54.70
2018-05-12T16:37:26.466Z,54.60
2018-05-12T16:39:54.693Z,54.60
2018-05-12T16:42:23.685Z,54.60
2018-05-12T16:44:52.706Z,54.20
2018-05-12T16:47:20.935Z,54.20
2018-05-12T16:49:49.191Z,54.00
2018-05-12T16:52:17.403Z,54.40
2018-05-12T16:54:46.437Z,54.20
2018-05-12T16:57:14.713Z,54.20
2018-05-12T16:59:42.944Z,53.90
2018-05-12T17:02:11.952Z,53.90
2018-05-12T17:04:40.945Z,54.00
2018-05-12T17:07:09.975Z,54.00
2018-05-12T17:09:38.267Z,54.00
2018-05-12T17:12:06.474Z,54.20
2018-05-12T17:14:35.479Z,55.10
2018-05-12T17:17:04.467Z,54.20
2018-05-12T17:19:33.538Z,54.20
2018-05-12T17:22:01.804Z,54.20
2018-05-12T17:24:30.069Z,54.40
2018-05-12T17:26:58.843Z,54.70
2018-05-12T17:29:27.108Z,55.00
2018-05-12T17:31:55.350Z,55.30
2018-05-12T17:34:24.339Z,55.20
2018-05-12T17:36:52.589Z,55.20
2018-05-12T17:39:20.827Z,54.70
2018-05-12T17:41:49.061Z,54.20
2018-05-12T17:44:17.395Z,54.40
2018-05-12T17:46:45.554Z,55.00
2018-05-12T17:49:13.804Z,55.30
2018-05-12T17:51:42.791Z,55.50
2018-05-12T17:54:11.014Z,55.50
2018-05-12T17:56:39.279Z,56.00
2018-05-12T17:59:08.268Z,55.10
2018-05-12T18:01:36.517Z,55.00
2018-05-12T18:04:04.763Z,55.00
2018-05-12T18:06:33.797Z,55.60
2018-05-12T18:09:02.781Z,56.00
2018-05-12T18:11:31.852Z,56.20
2018-05-12T18:14:00.842Z,56.40
2018-05-12T18:16:29.061Z,56.30
2018-05-12T18:18:58.085Z,56.70
2018-05-12T18:21:26.426Z,56.70
2018-05-12T18:23:55.421Z,57.10
2018-05-12T18:26:24.436Z,57.30
2018-05-12T18:28:52.651Z,57.20
2018-05-12T18:31:20.907Z,57.60
2018-05-12T18:33:49.134Z,57.60
2018-05-12T18:36:18.151Z,58.50
2018-05-12T18:38:46.383Z,58.10
2018-05-12T18:41:14.643Z,58.10
2018-05-12T18:43:42.867Z,58.20
2018-05-12T18:46:11.871Z,58.50
2018-05-12T18:48:40.140Z,58.50
2018-05-12T18:51:08.385Z,58.70
2018-05-12T18:53:36.631Z,58.70
2018-05-12T18:56:04.893Z,59.00
2018-05-12T18:58:33.115Z,58.60
2018-05-12T19:01:01.353Z,59.40
2018-05-12T19:03:29.598Z,59.50
2018-05-12T19:05:58.619Z,59.90
2018-05-12T19:08:26.890Z,59.80
2018-05-12T19:10:55.867Z,60.60
2018-05-12T19:13:24.176Z,60.00
2018-05-12T19:15:52.394Z,60.30
2018-05-12T19:18:20.635Z,60.50
2018-05-12T19:20:48.920Z,60.70
2018-05-12T19:23:17.154Z,60.90
2018-05-12T19:25:45.439Z,61.00
2018-05-12T19:28:13.679Z,61.30
2018-05-12T19:30:42.707Z,61.50
2018-05-12T19:33:10.936Z,61.40
2018-05-12T19:35:39.159Z,61.60
2018-05-12T19:38:07.416Z,61.70
2018-05-12T19:40:36.433Z,62.00
2018-05-12T19:43:04.654Z,62.00
2018-05-12T19:45:32.948Z,62.10
2018-05-12T19:48:01.172Z,62.20
2018-05-12T19:50:29.419Z,62.30
2018-05-12T19:52:57.705Z,62.30
2018-05-12T19:55:25.895Z,62.50
2018-05-12T19:57:54.150Z,62.50
2018-05-12T20:00:22.384Z,62.70
2018-05-12T20:02:50.642Z,62.70
2018-05-12T20:05:18.881Z,62.80
2018-05-12T20:07:47.889Z,63.10
2018-05-12T20:10:16.150Z,63.00
2018-05-12T20:12:44.394Z,63.10
2018-05-12T20:15:12.651Z,63.10
2018-05-12T20:17:40.900Z,63.40
2018-05-12T20:20:09.148Z,63.50
2018-05-12T20:22:38.141Z,63.70
2018-05-12T20:25:07.156Z,63.70
2018-05-12T20:27:35.392Z,63.70
2018-05-12T20:30:03.666Z,63.70
2018-05-12T20:32:31.900Z,63.70
2018-05-12T20:35:00.143Z,63.80
2018-05-12T20:37:28.431Z,63.90
2018-05-12T20:39:56.648Z,63.90
2018-05-12T20:42:24.876Z,64.00
2018-05-12T20:44:53.128Z,64.10
2018-05-12T20:47:21.348Z,64.10
2018-05-12T20:49:49.656Z,64.30
2018-05-12T20:52:17.856Z,64.50
2018-05-12T20:54:46.109Z,64.70
2018-05-12T20:57:14.340Z,65.60
2018-05-12T20:59:42.577Z,65.00
2018-05-12T21:02:10.837Z,65.20
2018-05-12T21:04:39.100Z,65.50
2018-05-12T21:07:07.351Z,65.50
2018-05-12T21:09:35.589Z,65.70
2018-05-12T21:12:04.602Z,66.30
2018-05-12T21:14:32.827Z,65.90
2018-05-12T21:17:01.092Z,65.90
2018-05-12T21:19:29.693Z,66.00
2018-05-12T21:21:57.903Z,66.00
2018-05-12T21:24:26.892Z,66.20
2018-05-12T21:26:55.911Z,66.50
2018-05-12T21:29:24.229Z,66.50
2018-05-12T21:31:52.375Z,66.50
2018-05-12T21:34:20.663Z,66.60
2018-05-12T21:36:48.899Z,66.60
2018-05-12T21:39:17.982Z,66.50
2018-05-12T21:41:46.135Z,66.50
2018-05-12T21:44:14.398Z,66.40
2018-05-12T21:46:43.392Z,66.30
2018-05-12T21:49:11.657Z,66.30
2018-05-12T21:51:39.890Z,66.30
2018-05-12T21:54:08.936Z,66.40
2018-05-12T21:56:37.179Z,66.20
2018-05-12T21:59:05.456Z,66.30
2018-05-12T22:01:33.644Z,66.70
2018-05-12T22:04:01.883Z,65.80
2018-05-12T22:06:31.722Z,66.00
2018-05-12T22:08:59.944Z,66.00
2018-05-12T22:11:28.215Z,66.00
2018-05-12T22:13:56.443Z,65.90
2018-05-12T22:16:24.690Z,65.90
2018-05-12T22:18:52.919Z,65.70
2018-05-12T22:21:21.170Z,65.70
2018-05-12T22:23:49.394Z,65.90
2018-05-12T22:26:17.655Z,65.80
2018-05-12T22:28:45.920Z,65.80
2018-05-12T22:31:14.164Z,66.00
2018-05-12T22:33:43.197Z,66.30
2018-05-12T22:36:11.440Z,66.20
2018-05-12T22:38:40.457Z,66.30
2018-05-12T22:41:08.695Z,66.30
2018-05-12T22:43:36.971Z,66.50
2018-05-12T22:46:05.180Z,66.60
2018-05-12T22:48:33.453Z,66.70
2018-05-12T22:51:01.694Z,66.70
2018-05-12T22:53:29.945Z,66.70
2018-05-12T22:55:58.163Z,67.70
2018-05-12T22:58:27.179Z,66.90
2018-05-12T23:00:55.411Z,66.90
2018-05-12T23:03:23.645Z,67.00
2018-05-12T23:05:51.890Z,67.80
2018-05-12T23:08:20.111Z,67.20
2018-05-12T23:10:48.371Z,67.20
2018-05-12T23:13:16.651Z,67.20
2018-05-12T23:15:44.895Z,67.30
2018-05-12T23:18:13.905Z,67.60
2018-05-12T23:20:42.156Z,67.60
2018-05-12T23:23:11.178Z,68.00
2018-05-12T23:25:39.430Z,68.00
2018-05-12T23:28:08.443Z,68.50
2018-05-12T23:30:36.691Z,68.40
2018-05-12T23:33:05.683Z,68.80
2018-05-12T23:35:34.714Z,68.80
2018-05-12T23:38:02.963Z,68.80
2018-05-12T23:40:31.960Z,69.00
2018-05-12T23:43:00.976Z,69.00
2018-05-12T23:45:29.229Z,69.00
2018-05-12T23:47:58.226Z,69.10
2018-05-12T23:50:26.452Z,69.10
2018-05-12T23:52:54.709Z,69.30
2018-05-12T23:55:22.947Z,69.50
2018-05-12T23:57:51.959Z,69.70
